createdAt,value
2018-05-27T00:01:04.608Z,1002.73
2018-05-27T00:02:14.709Z,1002.74
2018-05-27T00:03:24.568Z,1002.72
2018-05-27T00:04:34.697Z,1002.73
2018-05-27T00:05:44.500Z,1002.73
2018-05-27T00:06:54.607Z,1002.69
2018-05-27T00:08:03.887Z,1002.75
2018-05-27T00:09:13.962Z,1002.7
2018-05-27T00:10:23.763Z,1002.73
2018-05-27T00:11:33.848Z,1002.68
2018-05-27T00:12:43.909Z,1002.67
2018-05-27T00:13:53.760Z,1002.72
2018-05-27T00:15:03.333Z,1002.71
2018-05-27T00:16:13.471Z,1002.73
2018-05-27T00:17:23.553Z,1002.72
2018-05-27T00:18:33.362Z,1002.74
2018-05-27T00:19:43.168Z,1002.73
2018-05-27T00:20:53.255Z,1002.69
2018-05-27T00:22:03.396Z,1002.72
2018-05-27T00:23:13.456Z,1002.68
2018-05-27T00:24:23.553Z,1002.7
2018-05-27T00:25:33.616Z,1002.7
2018-05-27T00:26:43.707Z,1002.72
2018-05-27T00:27:53.598Z,1002.7
2018-05-27T00:29:03.677Z,1002.69
2018-05-27T00:30:13.496Z,1002.71
2018-05-27T00:31:23.574Z,1002.72
2018-05-27T00:32:33.659Z,1002.74
2018-05-27T00:33:43.772Z,1002.78
2018-05-27T00:34:53.600Z,1002.78
2018-05-27T00:36:03.696Z,1002.73
2018-05-27T00:37:13.773Z,1002.72
2018-05-27T00:38:23.844Z,1002.73
2018-05-27T00:39:33.717Z,1002.69
2018-05-27T00:40:43.801Z,1002.68
2018-05-27T00:41:53.885Z,1002.67
2018-05-27T00:43:03.955Z,1002.66
2018-05-27T00:44:13.769Z,1002.63
2018-05-27T00:45:23.836Z,1002.63
2018-05-27T00:46:33.685Z,1002.63
2018-05-27T00:47:43.788Z,1002.63
2018-05-27T00:48:53.876Z,1002.65
2018-05-27T00:50:03.977Z,1002.65
2018-05-27T00:51:13.842Z,1002.63
2018-05-27T00:52:23.926Z,1002.61
2018-05-27T00:53:34.027Z,1002.6
2018-05-27T00:54:44.108Z,1002.58
2018-05-27T00:55:54.197Z,1002.62
2018-05-27T00:57:04.092Z,1002.59
2018-05-27T00:58:14.163Z,1002.57
2018-05-27T00:59:24.244Z,1002.56
2018-05-27T01:00:34.317Z,1002.56
2018-05-27T01:01:44.145Z,1002.6
2018-05-27T01:02:54.258Z,1002.56
2018-05-27T01:04:04.083Z,1002.58
2018-05-27T01:05:14.183Z,1002.57
2018-05-27T01:06:23.996Z,1002.54
2018-05-27T01:07:34.080Z,1002.5
2018-05-27T01:08:44.200Z,1002.48
2018-05-27T01:09:54.271Z,1002.47
2018-05-27T01:11:04.372Z,1002.44
2018-05-27T01:12:14.197Z,1002.43
2018-05-27T01:13:24.270Z,1002.44
2018-05-27T01:14:34.397Z,1002.41
2018-05-27T01:15:44.497Z,1002.44
2018-05-27T01:16:54.601Z,1002.42
2018-05-27T01:18:04.690Z,1002.41
2018-05-27T01:19:13.966Z,1002.41
2018-05-27T01:20:23.542Z,1002.4
2018-05-27T01:21:33.375Z,1002.39
2018-05-27T01:22:43.441Z,1002.36
2018-05-27T01:23:53.274Z,1002.39
2018-05-27T01:25:03.352Z,1002.39
2018-05-27T01:26:13.477Z,1002.35
2018-05-27T01:27:23.561Z,1002.35
2018-05-27T01:28:33.110Z,1002.34
2018-05-27T01:29:43.188Z,1002.33
2018-05-27T01:30:53.266Z,1002.27
2018-05-27T01:32:03.379Z,1002.31
2018-05-27T01:33:12.933Z,1002.26
2018-05-27T01:34:23.004Z,1002.21
2018-05-27T01:35:32.816Z,1002.23
2018-05-27T01:36:42.892Z,1002.24
2018-05-27T01:37:52.960Z,1002.23
2018-05-27T01:39:02.768Z,1002.29
2018-05-27T01:40:12.835Z,1002.26
2018-05-27T01:41:22.913Z,1002.25
2018-05-27T01:42:32.998Z,1002.29
2018-05-27T01:43:43.122Z,1002.24
2018-05-27T01:44:52.665Z,1002.2
2018-05-27T01:46:02.775Z,1002.23
2018-05-27T01:47:12.844Z,1002.25
2018-05-27T01:48:22.919Z,1002.23
2018-05-27T01:49:32.731Z,1002.26
2018-05-27T01:50:42.797Z,1002.22
2018-05-27T01:51:52.599Z,1002.25
2018-05-27T01:53:02.688Z,1002.27
2018-05-27T01:54:12.763Z,1002.25
2018-05-27T01:55:22.884Z,1002.25
2018-05-27T01:56:32.691Z,1002.26
2018-05-27T01:57:42.525Z,1002.31
2018-05-27T01:58:52.596Z,1002.3
2018-05-27T02:00:02.675Z,1002.34
2018-05-27T02:01:12.753Z,1002.36
2018-05-27T02:02:22.585Z,1002.31
2018-05-27T02:03:32.389Z,1002.29
2018-05-27T02:04:42.456Z,1002.26
2018-05-27T02:05:52.560Z,1002.26
2018-05-27T02:07:02.687Z,1002.25
2018-05-27T02:08:12.255Z,1002.22
2018-05-27T02:09:22.338Z,1002.22
2018-05-27T02:10:32.427Z,1002.21
2018-05-27T02:11:42.518Z,1002.21
2018-05-27T02:12:52.641Z,1002.24
2018-05-27T02:14:02.453Z,1002.22
2018-05-27T02:15:12.274Z,1002.19
2018-05-27T02:16:22.080Z,1002.24
2018-05-27T02:17:31.904Z,1002.25
2018-05-27T02:18:41.768Z,1002.26
2018-05-27T02:19:51.588Z,1002.22
2018-05-27T02:21:01.679Z,1002.27
2018-05-27T02:22:11.520Z,1002.35
2018-05-27T02:23:21.619Z,1002.36
2018-05-27T02:24:31.443Z,1002.34
2018-05-27T02:25:41.509Z,1002.32
2018-05-27T02:26:52.027Z,1002.32
2018-05-27T02:28:02.111Z,1002.36
2018-05-27T02:29:12.185Z,1002.31
2018-05-27T02:30:21.974Z,1002.34
2018-05-27T02:31:31.790Z,1002.34
2018-05-27T02:32:41.655Z,1002.35
2018-05-27T02:33:50.957Z,1002.33
2018-05-27T02:35:00.803Z,1002.33
2018-05-27T02:36:10.877Z,1002.3
2018-05-27T02:37:20.706Z,1002.33
2018-05-27T02:38:30.789Z,1002.36
2018-05-27T02:39:40.882Z,1002.33
2018-05-27T02:40:50.954Z,1002.32
2018-05-27T02:42:01.031Z,1002.3
2018-05-27T02:43:11.140Z,1002.35
2018-05-27T02:44:20.744Z,1002.37
2018-05-27T02:45:30.842Z,1002.35
2018-05-27T02:46:40.652Z,1002.36
2018-05-27T02:47:50.205Z,1002.34
2018-05-27T02:49:00.016Z,1002.36
2018-05-27T02:50:10.149Z,1002.34
2018-05-27T02:51:20.235Z,1002.34
2018-05-27T02:52:30.320Z,1002.32
2018-05-27T02:53:40.407Z,1002.35
2018-05-27T02:54:50.488Z,1002.29
2018-05-27T02:56:00.407Z,1002.3
2018-05-27T02:57:10.491Z,1002.32
2018-05-27T02:58:20.584Z,1002.29
2018-05-27T02:59:30.729Z,1002.26
2018-05-27T03:00:40.808Z,1002.26
2018-05-27T03:01:50.913Z,1002.22
2018-05-27T03:03:01.004Z,1002.26
2018-05-27T03:35:06.401Z,1002.22
2018-05-27T03:36:16.459Z,1002.25
2018-05-27T03:37:26.529Z,1002.18
2018-05-27T03:38:36.601Z,1002.18
2018-05-27T03:39:46.663Z,1002.16
2018-05-27T03:40:56.745Z,1002.18
2018-05-27T03:42:06.558Z,1002.18
2018-05-27T03:43:16.626Z,1002.16
2018-05-27T03:44:26.159Z,1002.17
2018-05-27T03:45:36.233Z,1002.12
2018-05-27T03:46:46.097Z,1002.09
2018-05-27T03:47:56.173Z,1002.09
2018-05-27T03:49:05.981Z,1002.08
2018-05-27T03:50:16.059Z,1002.14
2018-05-27T03:51:26.151Z,1002.14
2018-05-27T03:52:36.284Z,1002.16
2018-05-27T03:53:46.365Z,1002.18
2018-05-27T03:54:56.454Z,1002.19
2018-05-27T03:56:06.520Z,1002.2
2018-05-27T03:57:16.338Z,1002.2
2018-05-27T03:58:26.422Z,1002.21
2018-05-27T03:59:36.498Z,1002.2
2018-05-27T04:00:46.586Z,1002.2
2018-05-27T04:01:56.656Z,1002.18
2018-05-27T04:03:06.739Z,1002.2
2018-05-27T04:04:16.886Z,1002.2
2018-05-27T04:05:26.954Z,1002.19
2018-05-27T04:06:36.775Z,1002.21
2018-05-27T04:07:46.332Z,1002.17
2018-05-27T04:08:56.449Z,1002.18
2018-05-27T04:10:06.559Z,1002.19
2018-05-27T04:11:16.363Z,1002.21
2018-05-27T04:12:26.440Z,1002.18
2018-05-27T04:13:36.531Z,1002.22
2018-05-27T04:14:46.357Z,1002.24
2018-05-27T04:15:56.436Z,1002.24
2018-05-27T04:17:06.514Z,1002.22
2018-05-27T04:18:16.589Z,1002.36
2018-05-27T04:19:26.667Z,1002.64
2018-05-27T04:20:36.483Z,1002.74
2018-05-27T04:21:46.563Z,1002.68
2018-05-27T04:22:56.633Z,1002.67
2018-05-27T04:24:06.439Z,1002.66
2018-05-27T04:25:15.992Z,1002.68
2018-05-27T04:26:25.824Z,1002.64
2018-05-27T04:27:35.654Z,1002.59
2018-05-27T04:28:45.732Z,1002.57
2018-05-27T04:29:55.833Z,1002.54
2018-05-27T04:31:05.922Z,1002.58
2018-05-27T04:32:15.993Z,1002.52
2018-05-27T04:33:26.075Z,1002.51
2018-05-27T04:34:35.902Z,1002.51
2018-05-27T04:35:45.984Z,1002.53
2018-05-27T04:36:56.067Z,1002.56
2018-05-27T04:38:06.136Z,1002.58
2018-05-27T04:39:15.963Z,1002.6
2018-05-27T04:40:25.810Z,1002.57
2018-05-27T04:41:35.617Z,1002.58
2018-05-27T04:42:45.701Z,1002.65
2018-05-27T04:43:55.806Z,1002.66
2018-05-27T04:45:05.620Z,1002.69
2018-05-27T04:46:15.164Z,1002.69
2018-05-27T04:47:24.978Z,1002.74
2018-05-27T04:48:34.786Z,1002.77
2018-05-27T04:49:44.856Z,1002.74
2018-05-27T04:50:54.750Z,1002.74
2018-05-27T04:52:04.852Z,1002.72
2018-05-27T04:53:14.932Z,1002.77
2018-05-27T04:54:25.021Z,1002.81
2018-05-27T04:55:34.844Z,1002.81
2018-05-27T04:56:44.940Z,1002.78
2018-05-27T04:57:54.763Z,1002.77
2018-05-27T04:59:04.913Z,1002.79
2018-05-27T05:00:15.161Z,1002.76
2018-05-27T05:01:25.249Z,1002.74
2018-05-27T05:02:35.330Z,1002.72
2018-05-27T05:03:44.892Z,1002.67
2018-05-27T05:04:54.751Z,1002.67
2018-05-27T05:06:04.855Z,1002.68
2018-05-27T05:07:14.677Z,1002.7
2018-05-27T05:08:24.771Z,1002.69
2018-05-27T05:09:34.594Z,1002.71
2018-05-27T05:10:44.671Z,1002.71
2018-05-27T05:11:54.489Z,1002.67
2018-05-27T05:13:04.564Z,1002.71
2018-05-27T05:14:14.437Z,1002.7
2018-05-27T05:15:24.513Z,1002.77
2018-05-27T05:16:34.339Z,1003.33
2018-05-27T05:17:43.680Z,1003.51
2018-05-27T05:18:53.764Z,1003.25
2018-05-27T05:20:03.892Z,1003.26
2018-05-27T05:21:13.990Z,1003.21
2018-05-27T05:22:23.831Z,1003.03
2018-05-27T05:23:33.913Z,1003.08
2018-05-27T05:24:44.033Z,1003.26
2018-05-27T05:25:54.178Z,1003.3
2018-05-27T05:27:04.003Z,1003.23
2018-05-27T05:28:14.099Z,1003.16
2018-05-27T05:29:24.174Z,1003.23
2018-05-27T05:30:33.992Z,1003.23
2018-05-27T05:31:44.138Z,1003.17
2018-05-27T05:32:54.209Z,1003.16
2018-05-27T05:34:04.308Z,1003.18
2018-05-27T05:35:14.133Z,1003.12
2018-05-27T05:36:23.984Z,1003.05
2018-05-27T05:37:34.272Z,1002.98
2018-05-27T05:38:44.361Z,1002.97
2018-05-27T05:39:54.440Z,1003.05
2018-05-27T05:41:04.272Z,1003.11
2018-05-27T05:42:14.101Z,1003.12
2018-05-27T05:43:24.194Z,1003.04
2018-05-27T05:44:34.321Z,1002.99
2018-05-27T05:45:44.404Z,1002.97
2018-05-27T05:46:54.232Z,1003.1
2018-05-27T05:48:04.059Z,1003.09
2018-05-27T05:49:14.239Z,1002.95
2018-05-27T05:50:23.954Z,1002.94
2018-05-27T05:51:34.030Z,1003.08
2018-05-27T05:52:44.127Z,1003.1
2018-05-27T05:53:54.205Z,1003.05
2018-05-27T05:55:04.359Z,1003.07
2018-05-27T05:56:14.444Z,1003.04
2018-05-27T05:57:24.547Z,1003.06
2018-05-27T05:58:34.627Z,1003.06
2018-05-27T05:59:44.445Z,1003.02
2018-05-27T06:00:54.285Z,1003.05
2018-05-27T06:02:04.368Z,1003.08
2018-05-27T06:03:14.459Z,1003.05
2018-05-27T06:04:24.535Z,1003.05
2018-05-27T06:05:34.611Z,1003.04
2018-05-27T06:06:44.730Z,1003
2018-05-27T06:07:54.802Z,1002.99
2018-05-27T06:09:04.893Z,1002.98
2018-05-27T06:10:14.971Z,1003.02
2018-05-27T06:11:24.552Z,1002.98
2018-05-27T06:12:34.109Z,1002.95
2018-05-27T06:13:43.662Z,1002.83
2018-05-27T06:14:53.231Z,1002.64
2018-05-27T06:16:02.528Z,1002.61
2018-05-27T06:17:12.085Z,1002.63
2018-05-27T06:18:21.449Z,1002.62
2018-05-27T06:19:31.618Z,1002.68
2018-05-27T06:20:41.262Z,1002.7
2018-05-27T06:21:51.096Z,1002.76
2018-05-27T06:23:00.387Z,1002.81
2018-05-27T06:24:10.480Z,1002.92
2018-05-27T06:25:20.041Z,1002.96
2018-05-27T06:26:30.116Z,1003.01
2018-05-27T06:27:39.931Z,1003
2018-05-27T06:28:49.753Z,1002.99
2018-05-27T06:29:59.898Z,1003
2018-05-27T06:31:10.016Z,1002.99
2018-05-27T06:32:20.095Z,1002.97
2018-05-27T06:33:29.935Z,1002.94
2018-05-27T06:34:40.022Z,1002.94
2018-05-27T06:35:49.574Z,1002.93
2018-05-27T06:36:59.673Z,1002.93
2018-05-27T06:38:09.238Z,1002.91
2018-05-27T06:39:19.053Z,1002.86
2018-05-27T06:40:28.902Z,1002.85
2018-05-27T06:41:38.994Z,1002.83
2018-05-27T06:42:48.802Z,1002.85
2018-05-27T06:43:58.625Z,1002.82
2018-05-27T06:45:07.931Z,1002.78
2018-05-27T06:46:18.004Z,1002.81
2018-05-27T06:47:28.160Z,1002.8
2018-05-27T06:48:38.216Z,1002.8
2018-05-27T06:49:48.029Z,1002.83
2018-05-27T06:50:57.854Z,1002.82
2018-05-27T06:52:07.410Z,1002.79
2018-05-27T06:53:17.504Z,1002.78
2018-05-27T06:54:27.581Z,1002.75
2018-05-27T06:55:37.663Z,1002.74
2018-05-27T06:56:47.754Z,1002.77
2018-05-27T06:57:57.852Z,1002.77
2018-05-27T06:59:07.926Z,1002.78
2018-05-27T07:00:18.020Z,1002.8
2018-05-27T07:01:28.129Z,1002.85
2018-05-27T07:02:37.943Z,1002.83
2018-05-27T07:03:48.020Z,1002.81
2018-05-27T07:04:57.951Z,1002.88
2018-05-27T07:06:08.107Z,1002.83
2018-05-27T07:07:18.236Z,1002.88
2018-05-27T07:08:28.334Z,1002.78
2018-05-27T07:09:38.430Z,1002.79
2018-05-27T07:10:48.528Z,1002.81
2018-05-27T07:11:58.612Z,1002.78
2018-05-27T07:13:08.421Z,1002.81
2018-05-27T07:14:18.510Z,1002.8
2018-05-27T07:15:28.331Z,1002.81
2018-05-27T07:16:38.203Z,1002.81
2018-05-27T07:17:48.023Z,1002.81
2018-05-27T07:18:58.109Z,1002.79
2018-05-27T07:20:07.938Z,1002.81
2018-05-27T07:21:18.025Z,1002.76
2018-05-27T07:22:27.843Z,1002.74
2018-05-27T07:23:37.932Z,1002.69
2018-05-27T07:24:48.011Z,1002.68
2018-05-27T07:25:58.096Z,1002.67
2018-05-27T07:27:08.191Z,1002.71
2018-05-27T07:28:17.750Z,1002.67
2018-05-27T07:29:27.823Z,1002.72
2018-05-27T07:30:37.383Z,1002.67
2018-05-27T07:31:47.477Z,1002.69
2018-05-27T07:32:57.297Z,1002.69
2018-05-27T07:34:07.389Z,1002.69
2018-05-27T07:35:17.463Z,1002.73
2018-05-27T07:36:27.282Z,1002.75
2018-05-27T07:37:37.120Z,1002.78
2018-05-27T07:38:47.219Z,1002.8
2018-05-27T07:39:57.040Z,1002.79
2018-05-27T07:41:07.127Z,1002.82
2018-05-27T07:42:17.234Z,1002.84
2018-05-27T07:43:27.328Z,1002.8
2018-05-27T07:44:37.448Z,1002.82
2018-05-27T07:45:47.557Z,1002.83
2018-05-27T07:46:57.669Z,1002.82
2018-05-27T07:48:07.790Z,1002.81
2018-05-27T07:49:17.906Z,1002.81
2018-05-27T07:50:27.754Z,1002.77
2018-05-27T07:51:37.844Z,1002.82
2018-05-27T07:52:47.921Z,1002.83
2018-05-27T07:53:58.026Z,1002.82
2018-05-27T07:55:08.113Z,1002.84
2018-05-27T07:56:17.978Z,1002.89
2018-05-27T07:57:27.809Z,1002.91
2018-05-27T07:58:37.917Z,1002.96
2018-05-27T07:59:47.756Z,1002.93
2018-05-27T08:00:57.852Z,1002.95
2018-05-27T08:02:07.686Z,1002.97
2018-05-27T08:03:17.505Z,1002.99
2018-05-27T08:04:27.349Z,1002.98
2018-05-27T08:05:36.898Z,1002.99
2018-05-27T08:06:46.992Z,1002.99
2018-05-27T08:07:56.807Z,1003.03
2018-05-27T08:09:06.886Z,1003.02
2018-05-27T08:10:16.985Z,1003.02
2018-05-27T08:11:27.064Z,1003.04
2018-05-27T08:12:37.179Z,1002.99
2018-05-27T08:13:47.271Z,1003.02
2018-05-27T08:14:57.090Z,1003.03
2018-05-27T08:16:06.917Z,1003.04
2018-05-27T08:17:17.022Z,1003.03
2018-05-27T08:18:27.096Z,1003.01
2018-05-27T08:19:37.177Z,1003.06
2018-05-27T08:20:47.173Z,1003
2018-05-27T08:21:57.266Z,1003.04
2018-05-27T08:23:07.137Z,1003.03
2018-05-27T08:24:17.225Z,1003.02
2018-05-27T08:25:27.361Z,1003.03
2018-05-27T08:26:37.195Z,1003.06
2018-05-27T08:27:47.335Z,1003.02
2018-05-27T08:28:57.431Z,1003.05
2018-05-27T08:30:07.279Z,1003.05
2018-05-27T08:31:17.428Z,1003.03
2018-05-27T08:32:27.550Z,1003.03
2018-05-27T08:33:37.384Z,1003.02
2018-05-27T08:34:47.215Z,1003.05
2018-05-27T08:35:57.314Z,1003.03
2018-05-27T08:37:07.411Z,1003.05
2018-05-27T08:38:17.251Z,1003.09
2018-05-27T08:39:27.352Z,1003.09
2018-05-27T08:40:37.481Z,1003.11
2018-05-27T08:41:47.571Z,1003.09
2018-05-27T08:42:57.655Z,1003.1
2018-05-27T08:44:07.759Z,1003.06
2018-05-27T08:45:17.850Z,1003.03
2018-05-27T08:46:27.685Z,1003.04
2018-05-27T08:47:37.811Z,1003.01
2018-05-27T08:48:47.899Z,1002.96
2018-05-27T08:49:58.191Z,1002.98
2018-05-27T08:51:08.291Z,1002.94
2018-05-27T08:52:18.379Z,1002.97
2018-05-27T08:53:28.266Z,1002.95
2018-05-27T08:54:38.430Z,1002.9
2018-05-27T08:55:48.315Z,1002.9
2018-05-27T08:56:58.399Z,1002.91
2018-05-27T08:58:08.511Z,1002.9
2018-05-27T08:59:18.145Z,1002.87
2018-05-27T09:00:28.348Z,1002.85
2018-05-27T09:01:38.186Z,1002.88
2018-05-27T09:02:48.272Z,1002.91
2018-05-27T09:03:58.384Z,1002.92
2018-05-27T09:05:08.485Z,1002.96
2018-05-27T09:06:18.161Z,1002.95
2018-05-27T09:07:28.368Z,1002.97
2018-05-27T09:08:38.191Z,1002.97
2018-05-27T09:09:48.299Z,1002.92
2018-05-27T09:10:58.145Z,1002.95
2018-05-27T09:12:07.967Z,1002.95
2018-05-27T09:13:18.065Z,1002.97
2018-05-27T09:14:28.160Z,1002.91
2018-05-27T09:15:38.246Z,1002.92
2018-05-27T09:16:48.403Z,1002.91
2018-05-27T09:17:58.284Z,1002.92
2018-05-27T09:19:08.099Z,1002.91
2018-05-27T09:20:18.208Z,1002.91
2018-05-27T09:21:28.062Z,1002.87
2018-05-27T09:22:37.884Z,1002.85
2018-05-27T09:23:47.712Z,1002.87
2018-05-27T09:24:57.890Z,1002.89
2018-05-27T09:26:08.301Z,1002.89
2018-05-27T09:27:18.394Z,1002.89
2018-05-27T09:28:28.492Z,1002.89
2018-05-27T09:29:38.326Z,1002.89
2018-05-27T09:30:48.204Z,1002.95
2018-05-27T09:31:58.284Z,1002.9
2018-05-27T09:33:08.394Z,1002.89
2018-05-27T09:34:18.486Z,1002.96
2018-05-27T09:35:28.598Z,1002.92
2018-05-27T09:36:38.707Z,1002.88
2018-05-27T09:37:48.818Z,1002.92
2018-05-27T09:38:58.953Z,1002.89
2018-05-27T09:40:08.799Z,1002.91
2018-05-27T09:41:18.976Z,1002.83
2018-05-27T09:42:29.066Z,1002.93
2018-05-27T09:43:39.163Z,1002.94
2018-05-27T09:44:49.263Z,1002.95
2018-05-27T09:45:59.120Z,1002.97
2018-05-27T09:47:09.282Z,1002.93
2018-05-27T09:48:19.372Z,1002.99
2018-05-27T09:49:29.454Z,1002.91
2018-05-27T09:50:39.281Z,1002.93
2018-05-27T09:51:49.102Z,1002.92
2018-05-27T09:52:59.211Z,1002.89
2018-05-27T09:54:09.307Z,1002.86
2018-05-27T09:55:19.433Z,1002.88
2018-05-27T09:56:29.282Z,1002.83
2018-05-27T09:57:39.112Z,1002.87
2018-05-27T09:58:49.070Z,1002.92
2018-05-27T09:59:59.197Z,1002.87
2018-05-27T10:01:09.464Z,1002.89
2018-05-27T10:02:19.564Z,1002.88
2018-05-27T10:03:29.407Z,1002.86
2018-05-27T10:04:39.546Z,1002.83
2018-05-27T10:05:49.629Z,1002.78
2018-05-27T10:06:59.720Z,1002.82
2018-05-27T10:08:09.558Z,1002.82
2018-05-27T10:09:19.676Z,1002.82
2018-05-27T10:10:29.754Z,1002.82
2018-05-27T10:11:39.904Z,1002.81
2018-05-27T10:12:50.294Z,1002.83
2018-05-27T10:14:00.208Z,1002.76
2018-05-27T10:15:10.307Z,1002.74
2018-05-27T10:16:20.470Z,1002.74
2018-05-27T10:17:30.312Z,1002.77
2018-05-27T10:18:40.432Z,1002.76
2018-05-27T10:19:50.519Z,1002.72
2018-05-27T10:21:00.640Z,1002.71
2018-05-27T10:22:10.521Z,1002.71
2018-05-27T10:23:20.366Z,1002.7
2018-05-27T10:24:30.458Z,1002.77
2018-05-27T10:25:40.565Z,1002.71
2018-05-27T10:26:50.938Z,1002.68
2018-05-27T10:28:01.056Z,1002.62
2018-05-27T10:29:11.146Z,1002.68
2018-05-27T10:30:21.258Z,1002.66
2018-05-27T10:31:31.351Z,1002.67
2018-05-27T10:32:41.449Z,1002.66
2018-05-27T10:33:51.826Z,1002.57
2018-05-27T10:35:01.925Z,1002.57
2018-05-27T10:36:12.013Z,1002.57
2018-05-27T10:37:22.117Z,1002.6
2018-05-27T10:38:32.205Z,1002.6
2018-05-27T10:39:42.329Z,1002.62
2018-05-27T10:40:52.457Z,1002.57
2018-05-27T10:42:02.576Z,1002.55
2018-05-27T10:43:12.668Z,1002.58
2018-05-27T10:44:22.785Z,1002.52
2018-05-27T10:45:33.049Z,1002.56
2018-05-27T10:46:43.162Z,1002.59
2018-05-27T10:47:53.284Z,1002.5
2018-05-27T10:49:03.391Z,1002.47
2018-05-27T10:50:13.501Z,1002.46
2018-05-27T10:51:23.633Z,1002.45
2018-05-27T10:52:33.721Z,1002.47
2018-05-27T10:53:43.808Z,1002.45
2018-05-27T10:54:53.913Z,1002.47
2018-05-27T10:56:03.745Z,1002.46
2018-05-27T10:57:13.915Z,1002.42
2018-05-27T10:58:24.041Z,1002.44
2018-05-27T10:59:33.867Z,1002.41
2018-05-27T11:00:43.451Z,1002.31
2018-05-27T11:01:53.555Z,1002.34
2018-05-27T11:03:03.146Z,1002.29
2018-05-27T11:04:13.253Z,1002.32
2018-05-27T11:05:23.347Z,1002.32
2018-05-27T11:06:33.443Z,1002.3
2018-05-27T11:07:43.552Z,1002.33
2018-05-27T11:08:53.654Z,1002.29
2018-05-27T11:10:03.501Z,1002.3
2018-05-27T11:11:13.629Z,1002.26
2018-05-27T11:12:23.456Z,1002.25
2018-05-27T11:13:33.268Z,1002.26
2018-05-27T11:14:43.380Z,1002.19
2018-05-27T11:15:53.498Z,1002.17
2018-05-27T11:17:03.599Z,1002.11
2018-05-27T11:18:13.698Z,1002.19
2018-05-27T11:19:23.784Z,1002.11
2018-05-27T11:20:33.872Z,1002.12
2018-05-27T11:21:44.097Z,1002.12
2018-05-27T11:22:54.213Z,1002.12
2018-05-27T11:24:04.349Z,1002.05
2018-05-27T11:25:14.483Z,1002.01
2018-05-27T11:26:24.748Z,1002.01
2018-05-27T11:27:34.890Z,1001.95
2018-05-27T11:28:45.018Z,1001.87
2018-05-27T11:29:55.165Z,1001.97
2018-05-27T11:31:05.408Z,1001.91
2018-05-27T11:32:15.229Z,1001.87
2018-05-27T11:33:25.384Z,1001.88
2018-05-27T11:34:35.194Z,1001.89
2018-05-27T11:35:45.295Z,1001.92
2018-05-27T11:36:55.209Z,1001.86
2018-05-27T11:38:05.544Z,1001.85
2018-05-27T11:39:15.675Z,1001.77
2018-05-27T11:40:25.816Z,1001.75
2018-05-27T11:41:35.944Z,1001.66
2018-05-27T11:42:46.050Z,1001.65
2018-05-27T11:43:56.201Z,1001.73
2018-05-27T11:45:06.029Z,1001.68
2018-05-27T11:46:16.126Z,1001.7
2018-05-27T11:47:26.240Z,1001.69
2018-05-27T11:48:36.329Z,1001.72
2018-05-27T11:49:46.389Z,1001.65
2018-05-27T11:50:56.485Z,1001.6
2018-05-27T11:52:06.590Z,1001.62
2018-05-27T11:53:16.688Z,1001.67
2018-05-27T11:54:26.531Z,1001.7
2018-05-27T11:55:36.411Z,1001.66
2018-05-27T11:56:45.721Z,1001.66
2018-05-27T11:57:55.827Z,1001.64
2018-05-27T11:59:05.926Z,1001.52
2018-05-27T12:00:16.050Z,1001.51
2018-05-27T12:01:26.167Z,1001.5
2018-05-27T12:02:36.286Z,1001.57
2018-05-27T12:03:45.853Z,1001.51
2018-05-27T12:04:55.677Z,1001.4
2018-05-27T12:06:05.759Z,1001.44
2018-05-27T12:07:15.929Z,1001.44
2018-05-27T12:08:25.779Z,1001.33
2018-05-27T12:09:36.025Z,1001.37
2018-05-27T12:10:46.983Z,1001.33
2018-05-27T12:11:57.085Z,1001.35
2018-05-27T12:13:06.922Z,1001.33
2018-05-27T12:14:17.028Z,1001.38
2018-05-27T12:15:27.144Z,1001.36
2018-05-27T12:16:36.990Z,1001.36
2018-05-27T12:17:47.100Z,1001.33
2018-05-27T12:18:57.230Z,1001.3
2018-05-27T12:20:07.326Z,1001.3
2018-05-27T12:21:17.448Z,1001.26
2018-05-27T12:22:27.532Z,1001.33
2018-05-27T12:23:37.653Z,1001.33
2018-05-27T12:24:47.788Z,1001.33
2018-05-27T12:25:57.888Z,1001.34
2018-05-27T12:27:07.712Z,1001.31
2018-05-27T12:28:17.792Z,1001.33
2018-05-27T12:29:27.880Z,1001.3
2018-05-27T12:30:37.791Z,1001.31
2018-05-27T12:31:47.889Z,1001.24
2018-05-27T12:32:57.980Z,1001.26
2018-05-27T12:34:07.813Z,1001.28
2018-05-27T12:35:17.657Z,1001.25
2018-05-27T12:36:27.815Z,1001.21
2018-05-27T12:37:38.146Z,1001.18
2018-05-27T12:38:48.252Z,1001.16
2018-05-27T12:39:58.352Z,1001.18
2018-05-27T12:41:08.493Z,1001.09
2018-05-27T12:42:18.647Z,1001.11
2018-05-27T12:43:28.737Z,1001.14
2018-05-27T12:44:38.831Z,1001.14
2018-05-27T12:45:48.932Z,1001.15
2018-05-27T12:46:59.045Z,1001.17
2018-05-27T12:48:08.888Z,1001.11
2018-05-27T12:49:19.011Z,1001.05
2018-05-27T12:50:28.861Z,1001.07
2018-05-27T12:51:38.965Z,1001.01
2018-05-27T12:52:49.065Z,1001.07
2018-05-27T12:53:58.882Z,1001.06
2018-05-27T12:55:08.981Z,1001.04
2018-05-27T12:56:18.820Z,1001.01
2018-05-27T12:57:28.678Z,1001.07
2018-05-27T12:58:38.778Z,1001
2018-05-27T12:59:48.875Z,1000.98
2018-05-27T13:00:58.959Z,1001.03
2018-05-27T13:02:09.058Z,1001.01
2018-05-27T13:03:18.881Z,1001.05
2018-05-27T13:04:28.701Z,1001.04
2018-05-27T13:05:38.571Z,1001.03
2018-05-27T13:06:48.655Z,1001.1
2018-05-27T13:07:58.761Z,1001.09
2018-05-27T13:09:08.580Z,1001.13
2018-05-27T13:10:18.391Z,1001.08
2018-05-27T13:11:28.535Z,1001.11
2018-05-27T13:12:38.616Z,1001.07
2018-05-27T13:13:48.726Z,1001.08
2018-05-27T13:14:58.843Z,1001.12
2018-05-27T13:16:08.684Z,1001.08
2018-05-27T13:17:19.100Z,1001.09
2018-05-27T13:18:29.207Z,1001.06
2018-05-27T13:19:39.036Z,1001.04
2018-05-27T13:20:49.151Z,1001.04
2018-05-27T13:21:59.278Z,1001.03
2018-05-27T13:23:09.384Z,1000.99
2018-05-27T13:24:19.476Z,1000.96
2018-05-27T13:25:29.589Z,1000.96
2018-05-27T13:26:39.681Z,1000.98
2018-05-27T13:27:49.248Z,1000.98
2018-05-27T13:28:59.362Z,1001.02
2018-05-27T13:30:09.494Z,1000.95
2018-05-27T13:31:19.312Z,1000.99
2018-05-27T13:32:28.967Z,1000.97
2018-05-27T13:33:39.079Z,1000.98
2018-05-27T13:34:49.268Z,1001.03
2018-05-27T13:35:59.412Z,1001.06
2018-05-27T13:37:10.538Z,1001.08
2018-05-27T13:38:21.152Z,1001.12
2018-05-27T13:39:32.250Z,1001.12
2018-05-27T13:40:42.910Z,1001.08
2018-05-27T13:41:54.099Z,1001.13
2018-05-27T13:43:05.263Z,1001.06
2018-05-27T13:44:16.188Z,1001.08
2018-05-27T13:45:26.838Z,1001.09
2018-05-27T13:46:36.989Z,1001.11
2018-05-27T13:47:47.399Z,1001.13
2018-05-27T13:48:58.029Z,1001.11
2018-05-27T13:50:09.243Z,1001.1
2018-05-27T13:51:20.575Z,1001.14
2018-05-27T13:52:31.254Z,1001.14
2018-05-27T13:53:42.577Z,1001.16
2018-05-27T13:54:54.658Z,1001.21
2018-05-27T13:56:09.964Z,1001.17
2018-05-27T13:57:20.844Z,1001.17
2018-05-27T13:58:31.205Z,1001.16
2018-05-27T13:59:41.830Z,1001.18
2018-05-27T14:00:52.212Z,1001.12
2018-05-27T14:02:02.353Z,1001.11
2018-05-27T14:03:12.531Z,1001.12
2018-05-27T14:04:22.724Z,1001.07
2018-05-27T14:05:32.827Z,1001.1
2018-05-27T14:06:42.926Z,1001.09
2018-05-27T14:07:52.782Z,1001.08
2018-05-27T14:09:03.105Z,1001.08
2018-05-27T14:10:13.379Z,1001.03
2018-05-27T14:11:23.481Z,1001.01
2018-05-27T14:12:33.588Z,1001.01
2018-05-27T14:13:43.714Z,1000.98
2018-05-27T14:14:53.827Z,1001.02
2018-05-27T14:16:04.109Z,1000.97
2018-05-27T14:17:14.270Z,1000.96
2018-05-27T14:18:24.511Z,1000.95
2018-05-27T14:19:34.610Z,1000.98
2018-05-27T14:20:44.749Z,1000.97
2018-05-27T14:21:54.953Z,1000.95
2018-05-27T14:23:05.050Z,1000.95
2018-05-27T14:24:15.193Z,1000.91
2018-05-27T14:25:25.335Z,1000.86
2018-05-27T14:26:35.163Z,1000.85
2018-05-27T14:27:45.036Z,1000.84
2018-05-27T14:28:54.854Z,1000.78
2018-05-27T14:30:04.958Z,1000.76
2018-05-27T14:31:15.124Z,1000.76
2018-05-27T14:32:25.287Z,1000.78
2018-05-27T14:33:35.452Z,1000.76
2018-05-27T14:34:45.545Z,1000.77
2018-05-27T14:35:55.411Z,1000.76
2018-05-27T14:37:05.532Z,1000.83
2018-05-27T14:38:15.648Z,1000.83
2018-05-27T14:39:25.851Z,1000.84
2018-05-27T14:40:35.955Z,1000.87